Harrisville, MI (48740)

10:36 PM EDT on September 04, 2015 (GMT -0400)
Oscoda-Wurtsmith | | Change Station
CLOSE
Current Station
Airport
Location: Oscoda,
Elevation: 633 ft
Nearby Weather Stations

Elev 633 ft 44.45 °N, 83.39 °W | Updated 23 minutes ago

Overcast
Overcast
70 °F
Feels Like 70 °F
N
5
Wind Variable Wind from ENE

Today
High -- | Low -- °F
--% Chance of Precip.
Yesterday
High -- | Low -- °F
Precip. -- in
6:59 AM 8:05 PM
Waning Gibbous, 53% visible
Pressure 30.08 in
Visibility 10.0 miles
Clouds Scattered Clouds 3800 ft
Scattered Clouds 5500 ft
Dew Point 67 °F
Humidity 89%
Rainfall 0.00 in
Snow Depth Not available.
UV 0 out of 12
Pollen 10.10 out of 12
Air Quality Not available.
Flu Activity Not available.
METAR KOSC 050213Z AUTO 07004KT 10SM SCT038 SCT055 21/20 A3008 RMK AO2 T02140195
Pressure 30.08 in
Visibility 10.0 miles
Clouds Scattered Clouds 3800 ft
Scattered Clouds 5500 ft
Dew Point 67 °F
Humidity 89%
Rainfall 0.00 in
Snow Depth Not available.
UV 0 out of 12
Pollen 10.10 out of 12
Air Quality Not available.
Flu Activity Not available.
METAR KOSC 050213Z AUTO 07004KT 10SM SCT038 SCT055 21/20 A3008 RMK AO2 T02140195
Nowcast | as of 10:00 PM EDT on September 4, 2015

At 11 PM...mostly cloudy. Areas of fog. Scattered showers. Temperature 68. East winds 8 mph. At 1 am...partly cloudy. Areas of fog. Scattered showers. Temperature 68. Southeast winds 7 mph. At 3 am...partly cloudy. Areas of fog. Temperature 68. Southeast winds 6 mph. At 5 am...partly cloudy. Areas of fog. Temperature 67. Light winds.

×

10-Day Weather Forecast

×

Almanac

Astronomy

Sep. 04, 2015 Rise Set
Actual Time
Civil Twilight
Nautical Twilight
Astronomical Twilight
Moon
Length of Visible Light
Length of Day
Tomorrow will be .
, % of the Moon is Illuminated

Today's Extremes

State Highs State Lows

Community

WunderPhotos

Upload Photos

1,852,393 photos uploaded!

WunderBlogs® & News

Nearby

Air Quality

  Air Quality AQ Index Pollutant
Not available.

Snow Depth

Station Depth Elevation

Earthquake Activity

City Distance Mag. Time & Date
Minimum magnitude displayed is 2.5.

Coastal Water Temperatures

Place Temperature

Stations

Nearby Weather Stations

Station Location Temp. Windchill Dew Point Humidity Wind Precip. Elev Updated Type